Time;durP1;ratioP1;P1;durP2;ratioP2;P2;SDS_P1;SDS_P2;PMS_P1;PMS_P2;Temp;Humidity;BMP_temperature;BMP_pressure;BME280_temperature;BME280_humidity;BME280_pressure;Samples;Min_cycle;Max_cycle;Signal;HPM_P1;HPM_P2
2021/06/19 00:00:52;;;;;;;1.17;1.17;;;;;;;23.85;86.59;99952.00;5011619;28;20993;-52
2021/06/19 00:03:19;;;;;;;1.00;0.70;;;;;;;23.72;86.85;99955.94;5012235;28;20456;-52
2021/06/19 00:05:46;;;;;;;0.50;0.30;;;;;;;23.59;87.03;99965.16;5008831;28;20965;-52
2021/06/19 00:08:13;;;;;;;0.60;0.50;;;;;;;23.34;88.58;99971.81;5011731;28;20862;-52
2021/06/19 00:10:41;;;;;;;0.50;0.30;;;;;;;23.41;88.72;99964.00;5000008;28;20566;-52
2021/06/19 00:13:08;;;;;;;0.50;0.30;;;;;;;23.15;89.75;99976.25;5010916;28;20456;-52
2021/06/19 00:15:36;;;;;;;0.50;0.40;;;;;;;23.08;90.45;99973.22;5011886;28;20449;-52
2021/06/19 00:18:03;;;;;;;0.60;0.43;;;;;;;23.06;90.23;99980.63;5011473;28;20558;-52
2021/06/19 00:20:30;;;;;;;0.50;0.27;;;;;;;22.97;90.65;99978.69;5011856;28;20996;-52
2021/06/19 00:22:56;;;;;;;0.50;0.20;;;;;;;23.10;89.83;99982.06;4985756;28;20942;-53
2021/06/19 00:25:25;;;;;;;1.43;1.33;;;;;;;23.17;89.51;99983.28;5011531;28;21150;-54
2021/06/19 00:27:52;;;;;;;0.50;0.30;;;;;;;23.37;88.50;99986.09;4986510;28;20859;-52
2021/06/19 00:30:19;;;;;;;0.50;0.30;;;;;;;23.39;88.49;99994.97;5012466;28;20530;-53
2021/06/19 00:32:47;;;;;;;0.50;0.30;;;;;;;23.28;90.15;99998.59;5011310;28;20955;-51
2021/06/19 00:35:15;;;;;;;0.60;0.30;;;;;;;23.66;87.83;99997.16;5001269;28;20910;-51
2021/06/19 00:37:42;;;;;;;0.60;0.43;;;;;;;23.54;88.57;99996.34;5014749;28;20880;-52
2021/06/19 00:40:12;;;;;;;10.70;1.77;;;;;;;23.48;88.29;100003.19;5014694;28;20510;-51
2021/06/19 00:42:39;;;;;;;0.67;0.40;;;;;;;23.48;88.85;100005.03;5015070;28;20917;-51
2021/06/19 00:45:07;;;;;;;0.50;0.30;;;;;;;23.47;88.30;100006.03;5014781;28;20558;-51
2021/06/19 00:47:39;;;;;;;0.70;0.57;;;;;;;23.25;89.12;100001.59;5015099;28;20455;-51
2021/06/19 00:50:08;;;;;;;0.50;0.40;;;;;;;23.34;89.05;100001.66;5014479;28;21005;-52
2021/06/19 00:52:34;;;;;;;0.97;0.97;;;;;;;23.47;88.51;99997.88;5015005;28;20464;-52
2021/06/19 00:55:02;;;;;;;0.80;0.60;;;;;;;23.40;88.39;100002.13;5014797;28;20440;-51
2021/06/19 00:57:29;;;;;;;0.50;0.30;;;;;;;23.27;89.35;100003.16;5014774;28;20506;-52
2021/06/19 00:59:58;;;;;;;0.50;0.20;;;;;;;23.15;89.82;100006.94;5014189;28;20512;-52
2021/06/19 01:02:26;;;;;;;0.50;0.30;;;;;;;22.96;90.29;100006.78;5013503;28;20484;-52
2021/06/19 01:04:53;;;;;;;1.27;0.60;;;;;;;22.96;90.47;100004.94;5010901;28;20448;-52
2021/06/19 01:07:20;;;;;;;0.50;0.30;;;;;;;23.10;89.61;100008.31;5014764;28;20487;-52
2021/06/19 01:09:47;;;;;;;0.50;0.30;;;;;;;23.05;88.92;100008.72;5014647;28;20465;-51
2021/06/19 01:12:16;;;;;;;0.93;0.50;;;;;;;22.97;90.18;100013.94;5014671;28;20449;-52
2021/06/19 01:14:43;;;;;;;0.93;0.93;;;;;;;22.97;90.03;100003.06;5014344;28;20815;-50
2021/06/19 01:17:09;;;;;;;0.50;0.20;;;;;;;22.94;90.25;100009.63;5014101;28;20523;-52
2021/06/19 01:19:36;;;;;;;0.73;0.73;;;;;;;22.72;90.93;100013.22;5014008;28;21001;-52
2021/06/19 01:22:04;;;;;;;0.60;0.50;;;;;;;22.59;91.98;100012.53;5014224;28;20449;-52
2021/06/19 01:24:33;;;;;;;0.50;0.20;;;;;;;22.68;91.58;100016.34;5014412;28;20850;-52
2021/06/19 01:26:59;;;;;;;0.50;0.20;;;;;;;22.79;90.94;100010.03;5014148;28;20499;-52
2021/06/19 01:29:26;;;;;;;1.03;0.93;;;;;;;22.65;92.09;100011.19;5013818;28;20452;-51
2021/06/19 01:31:53;;;;;;;0.60;0.60;;;;;;;22.63;91.82;100003.19;5014017;28;20471;-51
2021/06/19 01:34:20;;;;;;;0.50;0.30;;;;;;;22.69;91.48;100001.78;5010724;28;20516;-52
2021/06/19 01:36:46;;;;;;;0.50;0.30;;;;;;;22.72;91.40;100013.22;5007355;28;20456;-51
2021/06/19 01:39:13;;;;;;;0.50;0.20;;;;;;;22.61;91.50;100013.25;5014015;28;20521;-52
2021/06/19 01:41:40;;;;;;;0.57;0.37;;;;;;;22.57;91.93;100013.66;5013939;28;20783;-52
2021/06/19 01:44:09;;;;;;;0.60;0.40;;;;;;;22.41;92.98;100019.47;4987908;28;20503;-52
2021/06/19 01:46:39;;;;;;;0.50;0.30;;;;;;;22.38;93.42;100017.88;5013388;28;21005;-52
2021/06/19 01:49:07;;;;;;;0.60;0.40;;;;;;;22.36;92.93;100019.00;5013730;28;20448;-53
2021/06/19 01:51:34;;;;;;;0.50;0.20;;;;;;;22.40;93.09;100015.91;5013315;28;21001;-52
2021/06/19 01:54:01;;;;;;;0.60;0.30;;;;;;;22.22;94.01;100024.69;5013980;28;20472;-51
2021/06/19 01:56:27;;;;;;;0.60;0.43;;;;;;;22.15;94.70;100018.91;5013406;28;20448;-51
2021/06/19 01:58:54;;;;;;;2.20;0.80;;;;;;;22.18;94.90;100016.78;5013783;28;20456;-52
2021/06/19 02:01:21;;;;;;;0.90;0.90;;;;;;;22.23;94.30;100016.44;5013040;28;20989;-52
2021/06/19 02:03:49;;;;;;;0.50;0.27;;;;;;;22.25;94.67;100016.31;5013487;28;20822;-51
2021/06/19 02:06:16;;;;;;;0.50;0.40;;;;;;;21.88;97.46;100013.81;5009548;28;20504;-51
2021/06/19 02:08:54;;;;;;;0.50;0.20;;;;;;;21.78;98.15;100004.69;5013602;28;20489;-52
2021/06/19 02:11:21;;;;;;;0.87;0.87;;;;;;;22.02;96.77;100019.00;4988942;28;20503;-52
2021/06/19 02:13:48;;;;;;;0.50;0.20;;;;;;;22.15;96.49;100018.91;5004580;28;20479;-52
2021/06/19 02:16:15;;;;;;;1.03;1.03;;;;;;;22.11;96.37;100014.72;5012664;28;20468;-52
2021/06/19 02:18:41;;;;;;;0.50;0.23;;;;;;;22.17;95.88;100019.63;5013404;28;20452;-52
2021/06/19 02:21:08;;;;;;;0.60;0.60;;;;;;;22.18;95.39;100016.78;5012779;28;20985;-52
2021/06/19 02:23:35;;;;;;;0.50;0.30;;;;;;;22.21;95.71;100012.13;5013107;28;20819;-52
2021/06/19 02:26:01;;;;;;;7.63;1.37;;;;;;;22.25;95.47;100013.59;5012710;28;20910;-52
2021/06/19 02:28:28;;;;;;;0.50;0.30;;;;;;;22.47;94.25;100008.13;5013228;28;20535;-52
2021/06/19 02:30:58;;;;;;;0.50;0.30;;;;;;;22.54;94.25;100014.78;5012731;28;20472;-52
2021/06/19 02:33:26;;;;;;;0.80;0.77;;;;;;;22.31;94.95;100008.53;5012944;28;20511;-53
2021/06/19 02:35:53;;;;;;;0.50;0.27;;;;;;;22.46;94.27;100014.53;5002399;28;20886;-52
2021/06/19 02:38:21;;;;;;;0.50;0.30;;;;;;;22.31;94.80;100013.94;5012899;28;20480;-52
2021/06/19 02:40:49;;;;;;;0.50;0.30;;;;;;;22.27;95.18;100011.63;5012570;28;20523;-53
2021/06/19 02:43:18;;;;;;;0.50;0.30;;;;;;;22.08;95.16;100010.41;5012872;28;20456;-52
2021/06/19 02:45:45;;;;;;;0.50;0.20;;;;;;;22.28;94.91;100003.38;5012386;28;20550;-52
2021/06/19 02:48:12;;;;;;;0.50;0.30;;;;;;;21.97;96.00;100007.69;5012786;28;20448;-53
2021/06/19 02:50:41;;;;;;;4.23;0.70;;;;;;;22.11;95.59;100014.72;4987573;28;20996;-53
2021/06/19 02:53:09;;;;;;;0.50;0.30;;;;;;;22.25;94.70;100014.47;5012362;28;20543;-52
2021/06/19 02:55:37;;;;;;;0.70;0.60;;;;;;;22.27;94.11;100009.78;5011428;28;20507;-52
2021/06/19 02:58:05;;;;;;;0.50;0.23;;;;;;;21.88;96.60;100019.22;5012353;28;20863;-52
2021/06/19 03:00:32;;;;;;;0.67;0.67;;;;;;;21.74;96.65;100012.22;5012162;28;20538;-54
2021/06/19 03:03:01;;;;;;;0.50;0.40;;;;;;;21.80;97.13;100013.59;5012366;28;20457;-52
2021/06/19 03:05:29;;;;;;;0.50;0.27;;;;;;;22.03;95.83;100012.59;5008244;28;20480;-54
2021/06/19 03:07:56;;;;;;;0.50;0.30;;;;;;;22.04;95.11;100021.56;5012136;28;20460;-52
2021/06/19 03:10:49;;;;;;;0.67;0.43;;;;;;;21.40;98.75;100032.94;5002950;28;20556;-52
2021/06/19 03:13:15;;;;;;;1.70;1.50;;;;;;;21.46;98.49;100027.06;4984543;28;20469;-52
2021/06/19 03:15:46;;;;;;;0.50;0.20;;;;;;;21.72;97.89;100026.84;5011202;28;20440;-52
2021/06/19 03:18:13;;;;;;;0.50;0.30;;;;;;;21.85;96.67;100028.47;5000190;28;20452;-52
2021/06/19 03:20:40;;;;;;;0.50;0.20;;;;;;;21.83;96.87;100029.56;5012058;28;20507;-52
2021/06/19 03:23:06;;;;;;;0.60;0.50;;;;;;;21.75;97.05;100035.59;5012197;28;20452;-52
2021/06/19 03:25:36;;;;;;;0.50;0.30;;;;;;;21.74;97.17;100041.13;5011876;28;20977;-52
2021/06/19 03:28:04;;;;;;;0.50;0.20;;;;;;;21.78;97.21;100031.75;5010820;28;20463;-52
2021/06/19 03:30:34;;;;;;;0.60;0.40;;;;;;;21.74;97.05;100041.13;5011526;28;20482;-53
2021/06/19 03:33:01;;;;;;;0.50;0.30;;;;;;;21.62;96.83;100048.34;5012108;28;20453;-52
2021/06/19 03:35:28;;;;;;;0.50;0.30;;;;;;;21.33;98.57;100053.31;5002105;28;20507;-52
2021/06/19 03:37:56;;;;;;;0.50;0.30;;;;;;;21.31;99.10;100070.66;5011993;28;20456;-52
2021/06/19 03:40:25;;;;;;;0.57;0.40;;;;;;;21.53;97.54;100068.88;5011634;28;20839;-52
2021/06/19 03:42:52;;;;;;;1.90;0.73;;;;;;;21.44;97.82;100077.69;5011772;28;20522;-52
2021/06/19 03:45:21;;;;;;;2.40;1.13;;;;;;;21.53;97.47;100073.44;5011135;28;20453;-53
2021/06/19 03:47:48;;;;;;;0.50;0.40;;;;;;;21.46;97.77;100075.72;5011585;28;20492;-52
2021/06/19 03:50:18;;;;;;;0.60;0.53;;;;;;;21.52;98.02;100086.09;5011500;28;20784;-52
2021/06/19 03:52:52;;;;;;;0.50;0.20;;;;;;;21.31;99.28;100084.16;5011652;28;20460;-53
2021/06/19 03:55:19;;;;;;;0.50;0.30;;;;;;;21.52;98.60;100082.53;5012244;28;20475;-53
2021/06/19 03:57:46;;;;;;;0.97;0.80;;;;;;;21.41;98.76;100079.78;5011617;28;20445;-52
2021/06/19 04:00:15;;;;;;;0.50;0.20;;;;;;;21.32;99.04;100080.47;5011463;28;20992;-52
2021/06/19 04:02:43;;;;;;;0.60;0.50;;;;;;;21.45;98.51;100084.84;5011890;28;20459;-53
2021/06/19 04:05:11;;;;;;;0.60;0.40;;;;;;;21.40;98.93;100094.28;5007940;28;20946;-52
2021/06/19 04:07:39;;;;;;;0.50;0.20;;;;;;;21.38;99.21;100102.53;5010085;28;20492;-53
2021/06/19 04:10:07;;;;;;;1.33;1.23;;;;;;;21.57;98.08;100104.66;5004452;28;21016;-52
2021/06/19 04:12:34;;;;;;;0.50;0.20;;;;;;;21.69;97.57;100106.44;5009685;28;20487;-53
2021/06/19 04:15:02;;;;;;;0.60;0.40;;;;;;;21.53;98.65;100114.88;5016094;28;20491;-53
2021/06/19 04:17:30;;;;;;;0.50;0.40;;;;;;;21.41;99.13;100107.69;5014709;28;20456;-52
2021/06/19 04:19:57;;;;;;;0.50;0.30;;;;;;;21.51;99.10;100116.81;5015229;28;21064;-52
2021/06/19 04:22:23;;;;;;;0.50;0.30;;;;;;;21.53;99.67;100124.84;5015437;28;20518;-53
2021/06/19 04:24:50;;;;;;;0.50;0.23;;;;;;;21.70;98.80;100121.69;5014124;28;20456;-53
2021/06/19 04:27:20;;;;;;;0.70;0.30;;;;;;;22.03;96.99;100130.84;5015406;28;20496;-53
2021/06/19 04:29:48;;;;;;;2.13;1.93;;;;;;;22.29;95.31;100135.09;5017383;28;20472;-53
2021/06/19 04:32:16;;;;;;;0.50;0.30;;;;;;;22.82;92.41;100129.88;5016566;28;20476;-53
2021/06/19 04:34:44;;;;;;;0.50;0.20;;;;;;;23.42;89.69;100119.50;5009252;28;20464;-53
2021/06/19 04:37:12;;;;;;;2.10;1.53;;;;;;;24.01;85.74;100121.69;5012890;28;20444;-52
2021/06/19 04:39:52;;;;;;;1.20;1.10;;;;;;;24.64;82.17;100119.72;5014450;28;20480;-51
2021/06/19 04:42:19;;;;;;;1.37;1.27;;;;;;;25.04;80.55;100123.28;5015033;28;20873;-53
2021/06/19 04:47:29;;;;;;;0.50;0.20;;;;;;;25.54;78.15;100116.91;5015039;28;20864;-52
2021/06/19 04:49:57;;;;;;;0.50;0.20;;;;;;;25.42;78.86;100127.06;5014568;28;20496;-52
2021/06/19 04:52:24;;;;;;;0.50;0.30;;;;;;;25.69;77.34;100137.25;5014936;28;20449;-53
2021/06/19 04:54:53;;;;;;;0.90;0.90;;;;;;;26.25;75.28;100128.25;5015052;28;20449;-53
2021/06/19 04:57:19;;;;;;;2.07;1.90;;;;;;;25.98;75.66;100123.59;5014743;28;20455;-53
2021/06/19 04:59:46;;;;;;;1.90;1.50;;;;;;;26.31;74.46;100126.81;5014403;28;20472;-53
2021/06/19 05:02:13;;;;;;;0.50;0.30;;;;;;;26.35;74.59;100129.09;5014393;28;20448;-52
2021/06/19 05:04:40;;;;;;;0.50;0.27;;;;;;;26.36;73.76;100139.03;5010413;28;20819;-52
2021/06/19 05:07:06;;;;;;;0.50;0.30;;;;;;;26.80;71.37;100134.66;5014598;28;20487;-53
2021/06/19 05:09:33;;;;;;;4.83;0.70;;;;;;;27.01;70.91;100133.59;5011458;28;20960;-53
2021/06/19 05:12:00;;;;;;;0.63;0.57;;;;;;;26.83;69.77;100128.03;5003041;28;20452;-53
2021/06/19 05:14:28;;;;;;;0.60;0.40;;;;;;;26.82;69.76;100137.25;5014399;28;20484;-53
2021/06/19 05:16:55;;;;;;;0.50;0.30;;;;;;;27.13;69.82;100140.53;5014158;28;20511;-53
2021/06/19 05:19:25;;;;;;;1.00;1.00;;;;;;;27.03;70.14;100135.16;5013893;28;20943;-53
2021/06/19 05:21:52;;;;;;;0.60;0.60;;;;;;;27.62;68.04;100138.28;5013723;28;20823;-53
2021/06/19 05:24:19;;;;;;;0.50;0.30;;;;;;;27.01;70.01;100142.63;5014133;28;20510;-53
2021/06/19 05:26:47;;;;;;;0.60;0.53;;;;;;;27.41;68.53;100144.06;5014124;28;20499;-53
2021/06/19 05:29:14;;;;;;;1.27;1.17;;;;;;;27.22;68.76;100136.88;5014362;28;20456;-52
2021/06/19 05:31:41;;;;;;;2.30;0.50;;;;;;;27.73;66.91;100133.47;5012411;28;20534;-53
2021/06/19 05:34:07;;;;;;;0.90;0.90;;;;;;;27.73;66.73;100143.56;5012144;28;20470;-53
2021/06/19 05:36:34;;;;;;;0.60;0.60;;;;;;;27.86;66.60;100141.28;5006263;28;20427;-53
2021/06/19 05:39:01;;;;;;;0.60;0.40;;;;;;;27.90;65.94;100136.34;5014000;28;20435;-53
2021/06/19 05:41:27;;;;;;;0.50;0.30;;;;;;;28.23;65.48;100137.41;5013963;28;20447;-52
2021/06/19 05:43:54;;;;;;;0.50;0.30;;;;;;;27.79;66.08;100139.31;5013770;28;21007;-53
2021/06/19 05:46:21;;;;;;;2.50;1.17;;;;;;;28.29;65.69;100145.03;5014177;28;20455;-53
2021/06/19 05:48:48;;;;;;;0.57;0.37;;;;;;;28.27;64.99;100150.66;5013526;28;20429;-54
2021/06/19 05:51:15;;;;;;;1.10;1.00;;;;;;;28.55;63.77;100148.59;5013734;28;20546;-53
2021/06/19 05:53:41;;;;;;;0.50;0.30;;;;;;;28.45;64.29;100142.38;5013583;28;20511;-52
2021/06/19 05:56:08;;;;;;;1.27;0.87;;;;;;;28.61;64.52;100136.13;5005392;28;20814;-53
2021/06/19 05:58:35;;;;;;;0.50;0.30;;;;;;;28.71;63.69;100141.50;4990056;28;20412;-53
2021/06/19 06:01:01;;;;;;;0.50;0.30;;;;;;;29.16;61.95;100146.63;4988584;28;20990;-53
2021/06/19 06:03:28;;;;;;;0.60;0.50;;;;;;;29.02;62.45;100150.88;4986234;28;20448;-53
2021/06/19 06:05:55;;;;;;;0.60;0.60;;;;;;;28.35;63.93;100154.44;4988451;28;20472;-53
2021/06/19 06:08:22;;;;;;;0.50;0.30;;;;;;;28.59;62.72;100160.06;4988942;28;20489;-52
2021/06/19 06:10:48;;;;;;;0.50;0.40;;;;;;;28.61;63.98;100158.88;4984803;28;20476;-52
2021/06/19 06:13:15;;;;;;;1.27;1.17;;;;;;;28.75;62.57;100157.41;4985683;28;20446;-52
2021/06/19 06:15:41;;;;;;;0.80;0.80;;;;;;;28.75;63.38;100159.28;4986015;28;20796;-52
2021/06/19 06:18:08;;;;;;;0.50;0.30;;;;;;;29.41;60.65;100161.25;4986977;28;20422;-52
2021/06/19 06:20:35;;;;;;;1.93;1.27;;;;;;;29.22;61.23;100162.41;4990174;28;20465;-53
2021/06/19 06:23:02;;;;;;;0.50;0.30;;;;;;;29.26;61.17;100158.31;5013237;28;20514;-52
2021/06/19 06:25:29;;;;;;;0.50;0.30;;;;;;;29.59;60.51;100159.25;5004842;28;20484;-52
2021/06/19 06:27:56;;;;;;;0.60;0.50;;;;;;;29.14;60.23;100167.84;4994093;28;20488;-53
2021/06/19 06:30:23;;;;;;;0.50;0.30;;;;;;;29.54;59.10;100166.28;5002422;28;20535;-52
2021/06/19 06:32:50;;;;;;;3.70;0.73;;;;;;;29.21;60.01;100174.38;4981383;28;20455;-51
2021/06/19 06:35:17;;;;;;;0.50;0.30;;;;;;;29.20;59.80;100169.94;4989603;28;20453;-51
2021/06/19 06:37:44;;;;;;;1.67;1.63;;;;;;;29.74;58.78;100165.78;5013070;28;20443;-52
2021/06/19 06:40:13;;;;;;;0.50;0.30;;;;;;;29.70;58.33;100155.31;5012459;28;20443;-52
2021/06/19 06:42:43;;;;;;;0.50;0.40;;;;;;;29.93;57.19;100156.34;5012997;28;20431;-52
2021/06/19 06:45:14;;;;;;;0.60;0.50;;;;;;;29.40;57.55;100154.06;5012531;28;20544;-51
2021/06/19 06:47:48;;;;;;;0.50;0.30;;;;;;;30.25;56.14;100151.88;4989765;28;20543;-51
2021/06/19 06:50:15;;;;;;;0.50;0.30;;;;;;;29.91;56.29;100152.09;5006683;28;20455;-54
2021/06/19 06:52:42;;;;;;;0.50;0.30;;;;;;;29.76;57.47;100144.53;4992629;28;20464;-53
2021/06/19 06:55:11;;;;;;;0.60;0.60;;;;;;;29.39;58.16;100141.38;4974452;28;20452;-53
2021/06/19 06:57:38;;;;;;;0.50;0.30;;;;;;;29.46;57.82;100151.50;4987869;28;20492;-53
2021/06/19 07:00:07;;;;;;;0.50;0.30;;;;;;;29.28;58.67;100150.78;4994112;28;20534;-54
2021/06/19 07:02:33;;;;;;;0.50;0.30;;;;;;;29.66;57.79;100146.59;5013455;28;20814;-54
2021/06/19 07:05:05;;;;;;;0.60;0.37;;;;;;;30.38;55.86;100154.94;5009829;28;20630;-53
2021/06/19 07:07:32;;;;;;;0.50;0.43;;;;;;;29.59;57.23;100167.47;5008780;28;20558;-53
2021/06/19 07:09:58;;;;;;;1.07;1.07;;;;;;;29.57;56.45;100157.69;4987107;28;20471;-53
2021/06/19 07:12:25;;;;;;;4.53;0.73;;;;;;;30.12;55.32;100159.78;5005315;28;20423;-53
2021/06/19 07:14:52;;;;;;;0.63;0.63;;;;;;;29.64;56.36;100154.13;4986028;28;20467;-53
2021/06/19 07:17:18;;;;;;;0.50;0.30;;;;;;;29.62;56.14;100150.72;4999135;28;20490;-53
2021/06/19 07:19:45;;;;;;;0.50;0.30;;;;;;;29.94;57.33;100155.31;5011033;28;20472;-54
2021/06/19 07:22:12;;;;;;;0.50;0.30;;;;;;;29.69;56.98;100148.97;5005194;28;20419;-53
2021/06/19 07:24:38;;;;;;;0.50;0.30;;;;;;;29.87;56.94;100150.69;5012511;28;20452;-53
2021/06/19 07:27:06;;;;;;;0.50;0.50;;;;;;;30.24;55.84;100148.28;5012854;28;20534;-54
2021/06/19 07:29:33;;;;;;;0.50;0.30;;;;;;;30.03;56.10;100137.84;4999757;28;20480;-53
2021/06/19 07:32:00;;;;;;;2.47;1.00;;;;;;;29.75;57.17;100133.75;4986746;28;20468;-53
2021/06/19 07:34:27;;;;;;;0.40;0.30;;;;;;;30.05;56.13;100138.56;4987241;28;20420;-54
2021/06/19 07:36:54;;;;;;;0.60;0.47;;;;;;;30.41;54.31;100138.13;4985195;28;20505;-53
2021/06/19 07:39:21;;;;;;;0.50;0.30;;;;;;;30.31;54.39;100135.59;4984190;28;20421;-54
2021/06/19 07:41:48;;;;;;;0.50;0.30;;;;;;;30.25;54.92;100139.03;4986002;28;20560;-54
2021/06/19 07:44:15;;;;;;;0.50;0.30;;;;;;;30.05;56.36;100143.19;4985468;28;20952;-53
2021/06/19 07:46:43;;;;;;;0.50;0.40;;;;;;;29.96;55.38;100145.03;4987432;28;20479;-54
2021/06/19 07:49:09;;;;;;;0.53;0.37;;;;;;;30.10;53.96;100140.78;4983506;28;20428;-53
2021/06/19 07:51:36;;;;;;;0.50;0.30;;;;;;;29.69;55.64;100142.66;4986895;28;20455;-54
2021/06/19 07:54:03;;;;;;;0.50;0.30;;;;;;;30.03;53.84;100145.22;4984232;28;20501;-53
2021/06/19 07:56:30;;;;;;;0.67;0.60;;;;;;;30.46;53.16;100143.13;4988839;28;20851;-54
2021/06/19 07:58:57;;;;;;;0.50;0.30;;;;;;;30.32;53.46;100134.56;4987823;28;20547;-54
2021/06/19 08:01:23;;;;;;;0.50;0.30;;;;;;;30.12;53.90;100144.19;4986238;28;20472;-53
2021/06/19 08:03:51;;;;;;;0.50;0.30;;;;;;;30.22;54.82;100138.53;4982710;28;20503;-54
2021/06/19 08:06:19;;;;;;;0.50;0.40;;;;;;;29.92;54.73;100145.56;4987500;28;20435;-54
2021/06/19 08:08:46;;;;;;;0.50;0.30;;;;;;;30.53;53.08;100146.84;5014076;28;20651;-53
2021/06/19 08:11:13;;;;;;;0.50;0.30;;;;;;;30.27;52.42;100150.69;4985843;28;20455;-54
2021/06/19 08:13:40;;;;;;;0.50;0.30;;;;;;;30.01;52.94;100137.13;4986513;28;20483;-54
2021/06/19 08:16:09;;;;;;;1.07;0.97;;;;;;;30.12;51.52;100141.44;4984038;28;20430;-54
2021/06/19 08:18:36;;;;;;;0.50;0.30;;;;;;;30.46;50.43;100134.88;4984105;28;20477;-54
2021/06/19 08:21:03;;;;;;;0.50;0.30;;;;;;;30.26;50.94;100139.88;4989092;28;20836;-52
2021/06/19 08:23:31;;;;;;;0.50;0.30;;;;;;;30.06;52.46;100139.41;4983942;28;20423;-52
2021/06/19 08:25:58;;;;;;;0.50;0.30;;;;;;;30.76;51.51;100134.13;4994517;28;20445;-52
2021/06/19 08:28:25;;;;;;;0.50;0.30;;;;;;;30.43;51.94;100136.09;5001482;28;20487;-52
2021/06/19 08:30:52;;;;;;;0.50;0.30;;;;;;;30.94;51.26;100120.13;5009252;28;20445;-53
2021/06/19 08:33:18;;;;;;;0.50;0.30;;;;;;;30.97;48.75;100125.25;5011309;28;20462;-52
2021/06/19 08:35:45;;;;;;;0.50;0.30;;;;;;;31.33;48.55;100117.34;4993998;28;20434;-52
2021/06/19 08:38:12;;;;;;;0.50;0.30;;;;;;;30.99;47.24;100122.34;5002930;28;20419;-52
2021/06/19 08:40:39;;;;;;;0.60;0.40;;;;;;;31.01;48.22;100120.28;4999983;28;20447;-53
2021/06/19 08:43:06;;;;;;;0.63;0.50;;;;;;;30.47;49.06;100109.16;4979415;28;20431;-54
2021/06/19 08:45:34;;;;;;;0.50;0.30;;;;;;;31.14;46.86;100101.31;5010529;28;20431;-53
2021/06/19 08:48:02;;;;;;;0.50;0.30;;;;;;;31.16;46.44;100096.50;4994035;28;20486;-53
2021/06/19 08:50:29;;;;;;;0.50;0.30;;;;;;;30.98;46.99;100102.28;5008520;28;20497;-56
2021/06/19 08:52:59;;;;;;;0.50;0.30;;;;;;;31.05;48.67;100086.75;5003367;28;21035;-54
2021/06/19 08:55:27;;;;;;;0.50;0.30;;;;;;;31.21;48.91;100088.59;4983412;28;20423;-54
2021/06/19 08:57:54;;;;;;;1.63;0.80;;;;;;;31.67;47.46;100088.59;4986863;28;20445;-54
2021/06/19 09:00:21;;;;;;;0.50;0.30;;;;;;;31.14;45.51;100087.59;4982964;28;20499;-54
2021/06/19 09:02:51;;;;;;;0.50;0.30;;;;;;;31.72;44.12;100077.88;4995213;28;20451;-54
2021/06/19 09:05:25;;;;;;;0.50;0.30;;;;;;;31.48;47.08;100078.94;4998318;28;20446;-53
2021/06/19 09:07:54;;;;;;;0.50;0.30;;;;;;;31.99;47.14;100077.31;4985018;28;20545;-53
2021/06/19 09:10:24;;;;;;;0.50;0.30;;;;;;;31.67;47.63;100075.69;4981874;28;20974;-54
2021/06/19 09:13:00;;;;;;;0.60;0.50;;;;;;;31.30;47.90;100068.25;4986789;28;20477;-53
2021/06/19 09:15:29;;;;;;;0.73;0.60;;;;;;;32.03;47.73;100070.38;5008893;28;20449;-55
2021/06/19 09:18:02;;;;;;;0.50;0.30;;;;;;;32.10;46.85;100060.34;4992678;28;20460;-55
2021/06/19 09:20:32;;;;;;;0.50;0.30;;;;;;;31.95;46.99;100050.38;4982316;28;20972;-54
2021/06/19 09:23:05;;;;;;;0.50;0.30;;;;;;;32.57;45.26;100058.25;4987681;28;21206;-55
2021/06/19 09:25:32;;;;;;;1.17;0.40;;;;;;;32.24;45.24;100057.78;4987024;28;20489;-53
2021/06/19 09:28:00;;;;;;;0.50;0.30;;;;;;;32.21;46.38;100055.38;4998355;28;20471;-54
2021/06/19 09:30:28;;;;;;;0.50;0.30;;;;;;;32.00;46.78;100056.16;4984705;28;20477;-55
2021/06/19 09:33:10;;;;;;;0.50;0.30;;;;;;;32.47;45.75;100053.03;4987327;28;20530;-54
2021/06/19 09:35:40;;;;;;;0.50;0.30;;;;;;;31.68;47.07;100055.41;4993333;28;20937;-54
2021/06/19 09:38:15;;;;;;;0.70;0.63;;;;;;;32.15;46.37;100056.16;5010538;28;20996;-54
2021/06/19 09:40:48;;;;;;;0.50;0.40;;;;;;;31.74;47.64;100051.09;4987530;28;20531;-55
2021/06/19 09:43:25;;;;;;;0.70;0.50;;;;;;;31.73;48.22;100049.34;4990495;28;20512;-54
2021/06/19 09:46:08;;;;;;;0.50;0.30;;;;;;;31.80;47.51;100058.59;4983254;28;20423;-54
2021/06/19 09:48:40;;;;;;;1.33;0.50;;;;;;;32.39;46.77;100056.78;4986100;28;20469;-54
2021/06/19 09:51:12;;;;;;;0.50;0.30;;;;;;;32.96;44.88;100049.66;5009466;28;21073;-54
2021/06/19 09:53:41;;;;;;;0.50;0.30;;;;;;;33.06;43.80;100052.13;4986614;28;20448;-56
2021/06/19 09:56:10;;;;;;;0.50;0.30;;;;;;;32.63;45.73;100047.34;4987776;28;20493;-54
2021/06/19 09:58:42;;;;;;;0.50;0.30;;;;;;;31.51;45.74;100035.44;4979332;28;20496;-54
2021/06/19 10:01:10;;;;;;;0.43;0.30;;;;;;;32.06;47.10;100036.13;4981765;28;20449;-55
2021/06/19 10:03:54;;;;;;;0.50;0.40;;;;;;;32.42;44.79;100028.00;4984359;28;20445;-54
2021/06/19 10:06:21;;;;;;;0.47;0.30;;;;;;;31.28;46.52;100020.03;4988371;28;20954;-54
2021/06/19 10:08:49;;;;;;;0.50;0.30;;;;;;;31.86;46.29;100018.50;5008879;28;20499;-53
2021/06/19 10:11:18;;;;;;;0.50;0.30;;;;;;;31.87;46.41;100015.56;4981643;28;20507;-56
2021/06/19 10:13:45;;;;;;;0.50;0.30;;;;;;;31.90;46.31;100011.56;5000168;28;20799;-54
2021/06/19 10:16:13;;;;;;;0.50;0.30;;;;;;;32.22;46.82;99996.59;4999752;28;20486;-55
2021/06/19 10:18:41;;;;;;;0.50;0.30;;;;;;;32.31;46.05;99996.31;5000401;28;20570;-53
2021/06/19 10:21:09;;;;;;;0.50;0.30;;;;;;;32.44;46.22;99990.13;5004348;28;20974;-54
2021/06/19 10:23:36;;;;;;;0.50;0.30;;;;;;;32.44;45.63;99995.63;5002981;28;20484;-54
2021/06/19 10:26:04;;;;;;;0.50;0.30;;;;;;;32.27;46.86;99983.09;5004001;28;21249;-54
2021/06/19 10:28:33;;;;;;;0.50;0.30;;;;;;;32.70;44.75;99984.09;5004160;28;20546;-54
2021/06/19 10:31:00;;;;;;;0.50;0.40;;;;;;;32.87;46.14;99973.72;4993246;28;20446;-54
2021/06/19 10:33:29;;;;;;;0.50;0.30;;;;;;;33.33;44.37;99978.81;4990918;28;20457;-54
2021/06/19 10:36:02;;;;;;;0.60;0.40;;;;;;;33.03;45.17;99972.59;4990892;28;20986;-54
2021/06/19 10:38:31;;;;;;;0.63;0.60;;;;;;;33.44;44.88;99981.03;5009763;28;20455;-53
2021/06/19 10:40:59;;;;;;;0.50;0.30;;;;;;;33.36;44.93;99983.97;5012550;28;20477;-53
2021/06/19 10:43:28;;;;;;;0.50;0.30;;;;;;;32.87;44.56;99974.56;5012536;28;20453;-53
2021/06/19 10:45:59;;;;;;;0.50;0.40;;;;;;;33.26;44.92;99979.59;5012456;28;20455;-53
2021/06/19 10:48:33;;;;;;;2.30;0.87;;;;;;;32.82;44.94;99974.31;5012669;28;20544;-53
2021/06/19 10:51:24;;;;;;;0.50;0.30;;;;;;;32.08;46.96;99968.06;5012367;28;20550;-54
2021/06/19 10:54:22;;;;;;;0.50;0.40;;;;;;;32.76;45.76;99954.91;5012778;28;21022;-53
2021/06/19 10:56:53;;;;;;;1.63;1.53;;;;;;;33.23;45.54;99954.34;5012381;28;20422;-53
2021/06/19 10:59:28;;;;;;;0.50;0.30;;;;;;;33.20;45.60;99958.38;5012340;28;20514;-54
2021/06/19 11:01:57;;;;;;;0.50;0.30;;;;;;;32.58;46.39;99944.34;4985361;28;20432;-54
2021/06/19 11:04:37;;;;;;;0.50;0.30;;;;;;;32.80;46.56;99951.59;4999338;28;20508;-53
2021/06/19 11:07:05;;;;;;;0.50;0.30;;;;;;;32.16;47.18;99937.66;4987308;28;20462;-53
2021/06/19 11:09:50;;;;;;;1.20;1.07;;;;;;;32.44;47.11;99935.09;4982183;28;20541;-52
2021/06/19 11:12:26;;;;;;;0.50;0.30;;;;;;;32.71;45.94;99938.97;4997153;28;20536;-54
2021/06/19 11:14:54;;;;;;;0.50;0.30;;;;;;;32.98;45.96;99926.38;5002875;28;20987;-53
2021/06/19 11:17:20;;;;;;;0.50;0.40;;;;;;;32.99;47.86;99933.56;4993166;28;20491;-53
2021/06/19 11:19:51;;;;;;;0.50;0.30;;;;;;;32.50;48.90;99931.56;4990029;28;20516;-53
2021/06/19 11:22:35;;;;;;;0.50;0.30;;;;;;;33.07;47.78;99933.44;4999209;28;20432;-53
2021/06/19 11:25:32;;;;;;;0.50;0.30;;;;;;;33.16;48.04;99936.91;4985870;28;20679;-54
2021/06/19 11:28:06;;;;;;;0.50;0.30;;;;;;;32.46;48.74;99932.97;4999221;28;20476;-52
2021/06/19 11:30:33;;;;;;;0.97;0.97;;;;;;;32.86;47.83;99938.94;5004424;28;21002;-52
2021/06/19 11:33:20;;;;;;;0.50;0.30;;;;;;;32.76;47.08;99935.63;4994476;28;20522;-52
2021/06/19 11:35:53;;;;;;;0.50;0.40;;;;;;;32.03;49.47;99929.25;5000692;28;20423;-52